KAPF/APF METAR and TAF weather

Enter ICAO airport designator
Station Type Date Time Source
KAPF METAR 2022/08/16 18:53 UTC NOAA

KAPF 161853Z 27009KT 10SM CLR 31/24 A2995 RMK AO2 SLP141 T03110244


Station Type Date Time Source
KAPF Decoded METAR 2022/08/16 18:53 UTC NOAA

NAPLES MUNICIPAL AIRPORT, FL, United States (KAPF) 26-09N 081-46W
Aug 16, 2022 - 02:53 PM EDT / 2022.08.16 1853 UTC
Wind: from the W (270 degrees) at 10 MPH (9 KT):0
Visibility: 10 mile(s):0
Sky conditions: clear
Temperature: 88.0 F (31.1 C)
Heat index: 98.6 F (37.0 C):1
Dew Point: 75.9 F (24.4 C)
Relative Humidity: 67%
Pressure (altimeter): 29.95 in. Hg (1014 hPa)
ob: KAPF 161853Z 27009KT 10SM CLR 31/24 A2995 RMK AO2 SLP141 T03110244
cycle: 19

Station Type Date Time Source
KAPF TAF 2022/08/16 18:22 UTC NOAA

TAF KAPF 161720Z 1618/1718 24010KT P6SM VCSH SCT030 SCT050
FM162200 26008KT P6SM SCT030 SCT200
FM170200 VRB03KT P6SM FEW030 SCT200

Example: see airport list